Time;durP1;ratioP1;P1;durP2;ratioP2;P2;SDS_P1;SDS_P2;PMS_P1;PMS_P2;Temp;Humidity;BMP_temperature;BMP_pressure;BME280_temperature;BME280_humidity;BME280_pressure;Samples;Min_cycle;Max_cycle;Signal;HPM_P1;HPM_P2
2022/07/30 00:02:56;;;;;;;5.50;2.75;;;19.50;1.00;;;;;;6168873;23;20017;-93
2022/07/30 00:05:37;;;;;;;4.80;2.50;;;19.50;1.00;;;;;;6153733;23;20020;-91
2022/07/30 00:08:31;;;;;;;2.80;2.50;;;19.50;1.00;;;;;;6168063;23;20052;-95
2022/07/30 00:11:36;;;;;;;3.45;2.33;;;19.50;1.00;;;;;;6189242;23;20388;-95
2022/07/30 00:14:25;;;;;;;2.22;1.80;;;19.50;1.00;;;;;;6189520;23;20030;-90
2022/07/30 00:17:08;;;;;;;3.50;2.35;;;19.40;1.00;;;;;;6188909;23;20099;-93
2022/07/30 00:19:56;;;;;;;5.75;2.25;;;19.40;1.00;;;;;;6189278;23;20028;-90
2022/07/30 00:22:55;;;;;;;2.75;2.28;;;19.40;1.00;;;;;;6167877;23;20021;-93
2022/07/30 00:25:56;;;;;;;2.33;1.77;;;19.40;1.00;;;;;;6169440;23;20031;-90
2022/07/30 00:29:30;;;;;;;;;;;;;;;;;;;;;
2022/07/30 00:32:46;;;;;;;4.70;2.25;;;19.30;1.00;;;;;;6190000;23;20013;-92
2022/07/30 01:02:52;;;;;;;3.50;2.50;;;19.00;1.00;;;;;;6216772;22;20020;-92
2022/07/30 01:09:51;;;;;;;4.32;2.58;;;19.00;1.00;;;;;;6218027;23;20079;-92
2022/07/30 01:21:05;;;;;;;4.47;2.42;;;18.90;1.00;;;;;;6130724;23;20017;-95
2022/07/30 01:25:09;;;;;;;;;;;;;;;;;;;;;
2022/07/30 01:47:55;;;;;;;3.70;2.67;;;18.80;1.00;;;;;;6211023;22;20016;-94
2022/07/30 02:00:01;;;;;;;4.82;2.70;;;18.80;1.00;;;;;;6082387;23;20022;-95
2022/07/30 02:03:37;;;;;;;;;;;;;;;;;;;;;
2022/07/30 02:06:54;;;;;;;6.32;2.50;;;18.70;1.00;;;;;;6151410;22;20001;-92
2022/07/30 02:09:41;;;;;;;4.45;3.03;;;18.70;1.00;;;;;;6186345;23;20009;-92
2022/07/30 02:12:31;;;;;;;3.08;2.30;;;18.70;1.00;;;;;;6189730;23;20024;-91
2022/07/30 02:16:01;;;;;;;4.28;2.75;;;18.70;1.00;;;;;;6158668;23;20048;-93
2022/07/30 02:19:30;;;;;;;2.75;2.10;;;18.70;1.00;;;;;;6069759;23;20089;-90
2022/07/30 02:22:43;;;;;;;4.50;2.40;;;18.70;1.00;;;;;;6144819;23;20024;-94
2022/07/30 02:26:02;;;;;;;3.70;2.47;;;18.60;1.00;;;;;;6161432;23;20027;-92
2022/07/30 02:29:32;;;;;;;3.33;2.28;;;18.60;1.00;;;;;;6164420;23;20027;-94
2022/07/30 02:33:09;;;;;;;4.68;2.05;;;18.60;1.00;;;;;;6186067;23;20092;-93
2022/07/30 02:36:57;;;;;;;2.20;2.00;;;18.60;1.00;;;;;;6170687;23;20017;-93
2022/07/30 02:39:29;;;;;;;6.10;2.53;;;18.60;1.00;;;;;;6141951;23;20021;-92
2022/07/30 02:43:01;;;;;;;7.90;2.63;;;18.50;1.00;;;;;;6141230;23;20017;-94
2022/07/30 02:57:57;;;;;;;4.85;2.70;;;18.50;1.00;;;;;;6247813;22;20012;-93
2022/07/30 03:01:33;;;;;;;4.40;3.05;;;18.50;1.00;;;;;;6199273;23;20012;-93
2022/07/30 03:04:41;;;;;;;3.83;2.63;;;18.50;1.00;;;;;;6191061;23;20496;-92
2022/07/30 03:08:11;;;;;;;3.35;2.33;;;18.50;1.00;;;;;;6169220;23;20471;-93
2022/07/30 03:12:28;;;;;;;4.53;2.28;;;18.40;1.00;;;;;;6205141;23;20036;-91
2022/07/30 03:15:49;;;;;;;2.92;2.03;;;18.40;1.00;;;;;;6187262;23;20074;-91
2022/07/30 03:19:17;;;;;;;6.25;2.25;;;18.40;1.00;;;;;;6207332;23;20020;-92
2022/07/30 03:22:21;;;;;;;5.53;2.60;;;18.40;1.00;;;;;;6219060;23;20009;-90
2022/07/30 03:42:50;;;;;;;;;;;;;;;;;;;;;
2022/07/30 03:47:02;;;;;;;;;;;;;;;;;;;;;
2022/07/30 03:50:55;;;;;;;2.88;2.30;;;18.20;1.00;;;;;;6043515;23;20384;-92
2022/07/30 03:54:37;;;;;;;;;;;;;;;;;;;;;
2022/07/30 03:58:10;;;;;;;;;;;;;;;;;;;;;
2022/07/30 04:01:52;;;;;;;2.47;2.28;;;18.10;1.00;;;;;;6038649;23;20046;-90
2022/07/30 04:05:05;;;;;;;5.97;2.75;;;18.10;1.00;;;;;;6020445;23;20092;-91
2022/07/30 04:08:30;;;;;;;2.97;2.42;;;18.10;1.00;;;;;;5998981;23;20352;-92
2022/07/30 04:16:22;;;;;;;;;;;;;;;;;;;;;
2022/07/30 04:27:32;;;;;;;4.28;2.50;;;18.00;1.00;;;;;;6060843;23;20084;-92
2022/07/30 04:31:26;;;;;;;5.03;2.97;;;18.00;1.00;;;;;;6085784;23;20550;-91
2022/07/30 04:39:26;;;;;;;3.13;2.28;;;18.00;1.00;;;;;;6240877;23;19915;-90
2022/07/30 04:42:22;;;;;;;4.20;2.58;;;18.00;1.00;;;;;;6224782;23;20039;-92
2022/07/30 04:45:37;;;;;;;;;;;;;;;;;;;;;
2022/07/30 04:49:05;;;;;;;3.13;2.15;;;18.00;1.00;;;;;;6168103;23;20027;-91
2022/07/30 04:52:37;;;;;;;3.83;2.90;;;17.90;1.00;;;;;;6193746;23;20069;-91
2022/07/30 05:07:11;;;;;;;4.03;2.70;;;17.90;1.00;;;;;;6159331;23;20474;-90
2022/07/30 05:10:35;;;;;;;4.30;2.30;;;17.90;1.00;;;;;;6130205;23;20005;-92
2022/07/30 05:14:08;;;;;;;4.60;2.83;;;17.90;1.00;;;;;;6109512;23;20352;-93
2022/07/30 05:45:30;;;;;;;4.80;2.60;;;17.90;1.00;;;;;;6152194;23;20021;-91
2022/07/30 05:52:51;;;;;;;4.00;1.85;;;17.90;1.00;;;;;;6008726;23;20033;-91
2022/07/30 05:56:07;;;;;;;4.15;2.38;;;17.90;1.00;;;;;;6021607;23;20023;-91
2022/07/30 05:59:38;;;;;;;4.05;2.38;;;17.90;1.00;;;;;;5970913;24;20055;-90
2022/07/30 06:03:48;;;;;;;5.43;2.00;;;17.90;1.00;;;;;;5997074;23;20050;-92
2022/07/30 06:20:40;;;;;;;2.55;1.98;;;18.00;1.00;;;;;;5956461;23;20103;-91
2022/07/30 06:27:50;;;;;;;4.35;1.90;;;18.10;1.00;;;;;;6187421;23;20017;-91
2022/07/30 06:30:50;;;;;;;3.75;2.20;;;18.10;1.00;;;;;;6137157;23;20017;-90
2022/07/30 06:33:30;;;;;;;3.55;2.08;;;18.10;1.00;;;;;;6154856;23;20020;-90
2022/07/30 06:36:20;;;;;;;3.10;2.40;;;18.10;1.00;;;;;;6135797;23;20026;-87
2022/07/30 06:39:10;;;;;;;3.47;2.05;;;18.20;1.00;;;;;;6135490;23;20092;-87
2022/07/30 06:42:06;;;;;;;2.63;1.98;;;18.20;1.00;;;;;;6104160;23;20383;-88
2022/07/30 06:45:11;;;;;;;4.72;1.70;;;18.20;1.00;;;;;;6138947;23;20148;-90
2022/07/30 06:48:04;;;;;;;2.87;2.00;;;18.30;1.00;;;;;;6136265;23;20025;-87
2022/07/30 06:50:31;;;;;;;2.42;1.63;;;18.30;1.00;;;;;;6082759;23;20259;-88
2022/07/30 06:52:59;;;;;;;4.47;1.90;;;18.30;1.00;;;;;;6130354;23;20087;-90
2022/07/30 06:55:36;;;;;;;7.93;1.95;;;18.30;1.00;;;;;;6109997;23;20021;-88
2022/07/30 06:58:03;;;;;;;2.33;2.00;;;18.30;1.00;;;;;;6131514;23;20027;-88
2022/07/30 07:00:56;;;;;;;4.03;1.75;;;18.30;1.00;;;;;;6138280;23;20017;-89
2022/07/30 07:03:26;;;;;;;2.88;2.03;;;18.30;1.00;;;;;;6131032;23;20104;-90
2022/07/30 07:06:05;;;;;;;3.42;1.60;;;18.30;1.00;;;;;;6130633;23;20045;-89
2022/07/30 07:08:35;;;;;;;3.03;1.85;;;18.40;1.00;;;;;;6106009;23;20025;-88
2022/07/30 07:11:04;;;;;;;2.50;2.00;;;18.40;1.00;;;;;;6130489;23;20405;-88
2022/07/30 07:13:40;;;;;;;2.08;1.50;;;18.40;1.00;;;;;;6130349;23;20449;-88
2022/07/30 07:16:11;;;;;;;3.03;1.83;;;18.40;1.00;;;;;;6106786;23;20057;-89
2022/07/30 07:18:43;;;;;;;2.10;1.80;;;18.40;1.00;;;;;;6130478;23;20017;-89
2022/07/30 07:21:10;;;;;;;5.00;1.75;;;18.50;1.00;;;;;;6130393;23;20084;-90
2022/07/30 07:23:37;;;;;;;2.38;1.95;;;18.50;1.00;;;;;;6130214;23;20093;-88
2022/07/30 07:26:20;;;;;;;2.15;1.67;;;18.50;1.00;;;;;;6148382;23;20025;-89
2022/07/30 07:28:47;;;;;;;2.85;1.70;;;18.50;1.00;;;;;;6129746;23;20346;-87
2022/07/30 07:31:13;;;;;;;3.05;1.73;;;18.50;1.00;;;;;;6155701;23;20033;-88
2022/07/30 07:34:00;;;;;;;1.90;1.50;;;18.50;1.00;;;;;;6135112;23;20076;-87
2022/07/30 07:36:28;;;;;;;3.25;1.67;;;18.50;1.00;;;;;;6204742;23;20170;-88
2022/07/30 07:38:55;;;;;;;2.90;1.90;;;18.50;1.00;;;;;;6182896;23;20009;-87
2022/07/30 07:41:22;;;;;;;3.10;1.48;;;18.50;1.00;;;;;;6183745;23;20002;-87
2022/07/30 07:43:49;;;;;;;2.97;1.35;;;18.50;1.00;;;;;;6183494;23;20005;-87
2022/07/30 07:46:29;;;;;;;4.05;1.73;;;18.50;1.00;;;;;;6183828;23;20045;-87
2022/07/30 07:49:01;;;;;;;3.45;1.80;;;18.50;1.00;;;;;;6159242;23;20013;-88
2022/07/30 07:51:34;;;;;;;2.65;1.75;;;18.50;1.00;;;;;;6155546;23;20048;-88
2022/07/30 07:54:17;;;;;;;;;;;18.60;1.00;;;;;;6155815;23;20028;-88
2022/07/30 07:56:56;;;;;;;2.35;1.30;;;18.60;1.00;;;;;;6131993;23;19926;-88
2022/07/30 07:59:35;;;;;;;3.25;1.27;;;18.60;1.00;;;;;;6154863;23;20453;-89
2022/07/30 08:02:25;;;;;;;2.75;1.42;;;18.60;1.00;;;;;;6154810;23;20013;-87
2022/07/30 08:05:05;;;;;;;4.20;1.40;;;18.60;1.00;;;;;;6154412;23;20101;-88
2022/07/30 08:07:51;;;;;;;3.33;1.70;;;18.70;1.00;;;;;;6154893;23;20097;-88
2022/07/30 08:10:37;;;;;;;2.83;1.45;;;18.70;1.00;;;;;;6156344;23;20060;-88
2022/07/30 18:10:09;;;;;;;2.80;1.33;;;23.20;1.00;;;;;;6180810;23;20134;31
2022/07/30 18:12:40;;;;;;;2.60;1.50;;;23.30;1.00;;;;;;6104413;23;20025;-93
2022/07/30 18:15:28;;;;;;;10.55;2.30;;;23.40;1.00;;;;;;6104056;23;20017;-90
2022/07/30 18:18:27;;;;;;;4.85;1.67;;;23.40;1.00;;;;;;6082433;23;20081;-92
2022/07/30 18:21:38;;;;;;;3.53;1.45;;;23.30;1.00;;;;;;6131340;23;20025;-92
2022/07/30 18:38:29;;;;;;;3.28;1.90;;;23.20;1.00;;;;;;6188346;23;20070;-92
2022/07/30 18:41:19;;;;;;;3.95;1.73;;;23.20;1.00;;;;;;6164470;23;20044;-91
2022/07/30 18:44:15;;;;;;;1.85;1.30;;;23.00;1.00;;;;;;6160989;23;20075;-96
